createdAt,value
2023-05-06T00:01:05.575Z,51.84
2023-05-06T00:03:35.307Z,52.06
2023-05-06T00:06:06.809Z,52.00
2023-05-06T00:08:36.732Z,52.08
2023-05-06T00:11:06.115Z,52.12
2023-05-06T00:13:37.248Z,52.01
2023-05-06T00:16:07.584Z,52.12
2023-05-06T00:18:37.182Z,52.25
2023-05-06T00:21:07.452Z,52.40
2023-05-06T00:23:36.914Z,52.23
2023-05-06T00:26:07.441Z,52.59
2023-05-06T00:28:37.081Z,52.59
2023-05-06T00:31:06.824Z,52.71
2023-05-06T00:33:36.966Z,52.71
2023-05-06T00:36:07.386Z,52.84
2023-05-06T00:38:37.162Z,52.65
2023-05-06T00:41:07.844Z,52.91
2023-05-06T00:43:37.983Z,52.91
2023-05-06T00:46:09.671Z,53.07
2023-05-06T00:48:40.197Z,53.07
2023-05-06T00:51:10.070Z,53.10
2023-05-06T00:53:40.064Z,53.14
2023-05-06T00:56:09.893Z,53.08
2023-05-06T00:58:41.049Z,53.20
2023-05-06T01:01:10.963Z,53.25
2023-05-06T01:03:40.760Z,53.41
2023-05-06T01:06:18.264Z,53.28
2023-05-06T01:08:57.654Z,53.40
2023-05-06T01:11:37.387Z,53.41
2023-05-06T01:14:13.971Z,53.47
2023-05-06T01:16:44.087Z,53.55
2023-05-06T01:19:34.881Z,53.45
2023-05-06T01:22:06.978Z,53.60
2023-05-06T01:24:37.714Z,53.73
2023-05-06T01:27:12.598Z,53.75
2023-05-06T01:29:47.778Z,53.82
2023-05-06T01:32:41.495Z,53.85
2023-05-06T01:35:22.203Z,53.96
2023-05-06T01:38:13.675Z,53.95
2023-05-06T01:40:44.518Z,53.98
2023-05-06T01:43:18.090Z,54.07
2023-05-06T01:45:54.385Z,54.25
2023-05-06T01:48:26.610Z,54.17
2023-05-06T01:50:56.109Z,54.37
2023-05-06T01:53:25.815Z,54.35
2023-05-06T01:55:56.549Z,54.59
2023-05-06T01:58:26.388Z,54.59
2023-05-06T02:00:55.657Z,54.68
2023-05-06T02:03:25.298Z,54.64
2023-05-06T02:05:55.044Z,54.74
2023-05-06T02:08:24.871Z,54.88
2023-05-06T02:10:54.409Z,55.12
2023-05-06T02:13:23.956Z,55.00
2023-05-06T02:15:55.146Z,55.09
2023-05-06T02:18:25.334Z,55.19
2023-05-06T02:20:54.511Z,55.18
2023-05-06T02:23:24.948Z,55.25
2023-05-06T02:25:54.286Z,55.39
2023-05-06T02:28:23.703Z,55.37
2023-05-06T02:30:57.232Z,55.55
2023-05-06T02:33:26.684Z,55.61
2023-05-06T02:35:56.532Z,55.60
2023-05-06T02:38:26.444Z,55.79
2023-05-06T02:40:55.730Z,55.83
2023-05-06T02:43:25.532Z,55.78
2023-05-06T02:45:56.679Z,55.89
2023-05-06T02:48:26.535Z,55.94
2023-05-06T02:50:56.247Z,55.96
2023-05-06T02:53:26.155Z,56.01
2023-05-06T02:55:55.648Z,56.15
2023-05-06T02:58:25.839Z,56.18
2023-05-06T03:00:55.199Z,56.22
2023-05-06T03:03:24.516Z,56.21
2023-05-06T03:05:54.565Z,56.33
2023-05-06T03:08:24.455Z,56.35
2023-05-06T03:10:54.295Z,56.35
2023-05-06T03:13:24.559Z,56.29
2023-05-06T03:15:54.445Z,56.40
2023-05-06T03:18:24.421Z,56.43
2023-05-06T03:20:53.515Z,56.56
2023-05-06T03:23:23.592Z,56.66
2023-05-06T03:25:53.499Z,56.73
2023-05-06T03:28:22.780Z,56.67
2023-05-06T03:30:52.193Z,56.72
2023-05-06T03:33:22.612Z,56.85
2023-05-06T03:35:52.541Z,56.91
2023-05-06T03:38:22.413Z,56.97
2023-05-06T03:40:51.904Z,56.95
2023-05-06T03:43:22.234Z,57.17
2023-05-06T03:45:54.325Z,57.01
2023-05-06T03:48:24.585Z,57.13
2023-05-06T03:50:54.481Z,57.18
2023-05-06T03:53:24.898Z,57.14
2023-05-06T03:55:59.512Z,57.10
2023-05-06T03:58:30.762Z,57.11
2023-05-06T04:01:08.169Z,57.14
2023-05-06T04:04:08.232Z,57.22
2023-05-06T04:07:18.177Z,57.15
2023-05-06T04:10:13.299Z,56.98
2023-05-06T04:12:45.054Z,56.91
2023-05-06T04:15:16.100Z,57.00
2023-05-06T04:17:45.552Z,56.78
2023-05-06T04:20:16.479Z,56.78
2023-05-06T04:22:50.563Z,56.87
2023-05-06T04:25:20.796Z,56.67
2023-05-06T04:27:51.500Z,56.73
2023-05-06T04:30:22.377Z,56.65
2023-05-06T04:32:51.733Z,56.47
2023-05-06T04:35:23.181Z,56.38
2023-05-06T04:37:54.843Z,56.35
2023-05-06T04:40:25.990Z,56.09
2023-05-06T04:42:55.571Z,56.01
2023-05-06T04:45:25.838Z,55.70
2023-05-06T04:47:55.692Z,55.51
2023-05-06T04:50:32.169Z,55.34
2023-05-06T04:53:10.855Z,55.26
2023-05-06T04:55:40.762Z,55.07
2023-05-06T04:58:10.708Z,54.92
2023-05-06T05:04:15.424Z,54.61
2023-05-06T05:04:44.582Z,54.45
2023-05-06T05:07:16.238Z,56.24
2023-05-06T05:09:45.401Z,56.44
2023-05-06T05:12:14.630Z,56.55
2023-05-06T05:14:44.155Z,55.89
2023-05-06T05:17:15.240Z,55.19
2023-05-06T05:19:59.087Z,54.47
2023-05-06T05:22:30.701Z,53.68
2023-05-06T05:25:02.596Z,53.57
2023-05-06T05:27:32.508Z,53.44
2023-05-06T05:30:08.609Z,53.51
2023-05-06T05:33:04.843Z,53.39
2023-05-06T05:35:41.826Z,53.26
2023-05-06T05:38:29.717Z,53.21
2023-05-06T05:41:00.194Z,53.23
2023-05-06T05:43:33.139Z,53.00
2023-05-06T05:46:19.436Z,53.05
2023-05-06T05:48:54.208Z,53.08
2023-05-06T05:51:26.110Z,52.81
2023-05-06T05:53:56.190Z,52.88
2023-05-06T05:56:27.112Z,52.79
2023-05-06T05:59:16.131Z,52.75
2023-05-06T06:02:20.644Z,52.62
2023-05-06T06:05:13.204Z,52.70
2023-05-06T06:08:41.892Z,52.44
2023-05-06T06:11:24.966Z,52.20
2023-05-06T06:14:24.490Z,52.21
2023-05-06T06:17:02.878Z,52.17
2023-05-06T06:19:41.855Z,52.04
2023-05-06T06:22:49.145Z,51.89
2023-05-06T06:25:45.034Z,52.00
2023-05-06T06:28:17.919Z,52.58
2023-05-06T06:30:52.017Z,52.05
2023-05-06T06:33:23.381Z,51.97
2023-05-06T06:35:59.242Z,51.82
2023-05-06T06:38:42.358Z,51.98
2023-05-06T06:41:52.408Z,51.74
2023-05-06T06:45:01.343Z,51.66
2023-05-06T06:47:41.937Z,51.73
2023-05-06T06:50:26.474Z,51.73
2023-05-06T06:53:07.086Z,51.50
2023-05-06T06:57:13.231Z,51.43
2023-05-06T06:59:24.525Z,51.41
2023-05-06T07:02:03.036Z,51.44
2023-05-06T07:04:43.828Z,51.33
2023-05-06T07:07:53.056Z,51.21
2023-05-06T07:11:19.050Z,51.24
2023-05-06T07:20:02.236Z,50.44
2023-05-06T07:21:59.479Z,50.47
2023-05-06T07:44:50.169Z,51.57
2023-05-06T07:47:40.176Z,51.02
2023-05-06T07:50:17.762Z,49.75
2023-05-06T07:52:47.151Z,49.81
2023-05-06T07:55:17.649Z,50.20
2023-05-06T07:57:52.582Z,49.97
2023-05-06T08:01:39.439Z,49.24
2023-05-06T08:05:53.728Z,48.66
2023-05-06T08:07:17.384Z,48.55
2023-05-06T08:11:01.032Z,48.44
2023-05-06T08:18:29.083Z,47.65
2023-05-06T08:26:18.324Z,47.13
2023-05-06T08:45:00.062Z,45.51
2023-05-06T08:47:56.010Z,45.46
2023-05-06T08:51:20.807Z,45.38
2023-05-06T08:54:52.561Z,45.13
2023-05-06T08:57:59.650Z,45.04
2023-05-06T09:00:59.021Z,44.83
2023-05-06T09:03:56.875Z,45.04
2023-05-06T09:07:17.417Z,44.47
2023-05-06T09:10:03.543Z,43.69
2023-05-06T09:13:24.349Z,44.03
2023-05-06T09:16:43.937Z,43.72
2023-05-06T09:19:34.350Z,43.97
2023-05-06T09:22:32.198Z,43.55
2023-05-06T09:25:50.753Z,43.60
2023-05-06T09:28:34.292Z,43.66
2023-05-06T09:31:54.035Z,42.93
2023-05-06T09:35:06.776Z,42.85
2023-05-06T09:38:17.074Z,42.50
2023-05-06T09:41:14.789Z,42.75
2023-05-06T09:44:10.245Z,42.16
2023-05-06T09:47:21.878Z,41.73
2023-05-06T09:50:57.131Z,42.07
2023-05-06T09:54:28.113Z,41.82
2023-05-06T09:57:14.585Z,41.54
2023-05-06T10:00:12.626Z,41.11
2023-05-06T10:02:59.412Z,41.17
2023-05-06T10:06:11.201Z,40.85
2023-05-06T10:09:18.502Z,40.32
2023-05-06T10:12:28.570Z,40.25
2023-05-06T10:15:18.183Z,40.09
2023-05-06T10:18:17.289Z,40.32
2023-05-06T10:21:15.724Z,40.29
2023-05-06T10:28:22.987Z,39.93
2023-05-06T10:31:14.377Z,38.97
2023-05-06T10:33:51.165Z,39.24
2023-05-06T10:36:27.328Z,39.19
2023-05-06T10:39:05.034Z,38.89
2023-05-06T10:41:37.801Z,38.81
2023-05-06T10:44:12.923Z,38.83
2023-05-06T10:47:08.662Z,38.63
2023-05-06T10:49:41.645Z,38.61
2023-05-06T10:52:24.870Z,38.47
2023-05-06T10:54:56.843Z,38.53
2023-05-06T10:57:44.792Z,38.25
2023-05-06T11:00:16.691Z,38.01
2023-05-06T11:03:06.973Z,38.09
2023-05-06T11:05:48.833Z,37.78
2023-05-06T11:08:25.690Z,37.40
2023-05-06T11:10:58.129Z,37.32
2023-05-06T11:13:36.737Z,37.40
2023-05-06T11:16:10.651Z,37.35
2023-05-06T11:18:44.802Z,37.67
2023-05-06T11:22:02.285Z,36.49
2023-05-06T11:24:53.796Z,36.88
2023-05-06T11:27:33.764Z,36.53
2023-05-06T11:30:06.185Z,36.45
2023-05-06T11:32:43.209Z,36.57
2023-05-06T11:35:29.693Z,36.43
2023-05-06T11:38:04.179Z,36.46
2023-05-06T11:40:34.816Z,36.10
2023-05-06T11:43:14.605Z,36.06
2023-05-06T11:45:46.664Z,36.10
2023-05-06T11:48:17.446Z,35.72
2023-05-06T11:50:47.611Z,35.82
2023-05-06T11:53:19.441Z,35.35
2023-05-06T11:55:54.283Z,35.33
2023-05-06T11:58:27.296Z,35.01
2023-05-06T12:00:59.489Z,35.02
2023-05-06T12:03:30.853Z,34.69
2023-05-06T12:06:01.395Z,34.67
2023-05-06T12:08:33.114Z,34.57
2023-05-06T12:11:06.606Z,34.25
2023-05-06T12:13:37.231Z,34.00
2023-05-06T12:16:09.252Z,33.90
2023-05-06T12:18:48.174Z,33.20
2023-05-06T12:21:23.998Z,33.35
2023-05-06T12:23:55.392Z,33.08
2023-05-06T12:26:26.957Z,32.88
2023-05-06T12:29:07.697Z,32.83
2023-05-06T12:31:37.063Z,32.58
2023-05-06T12:34:06.733Z,32.41
2023-05-06T12:36:40.645Z,31.82
2023-05-06T12:39:12.140Z,31.68
2023-05-06T12:41:43.438Z,31.11
2023-05-06T12:44:32.353Z,30.70
2023-05-06T12:47:03.422Z,30.53
2023-05-06T12:49:54.628Z,30.02
2023-05-06T12:52:28.185Z,29.39
2023-05-06T12:54:57.648Z,29.15
2023-05-06T12:57:27.066Z,28.83
2023-05-06T12:59:56.236Z,28.74
2023-05-06T13:02:25.620Z,28.82
2023-05-06T13:04:56.137Z,28.32
2023-05-06T13:07:25.406Z,27.91
2023-05-06T13:09:55.030Z,27.66
2023-05-06T13:12:25.230Z,27.58
2023-05-06T13:14:55.664Z,27.03
2023-05-06T13:17:26.008Z,26.92
2023-05-06T13:19:58.584Z,26.99
2023-05-06T13:22:28.053Z,26.15
2023-05-06T13:24:57.400Z,26.25
2023-05-06T13:27:29.353Z,25.98
2023-05-06T13:29:59.429Z,26.21
2023-05-06T13:32:28.849Z,25.90
2023-05-06T13:34:58.100Z,25.47
2023-05-06T13:37:27.689Z,24.96
2023-05-06T13:39:56.988Z,25.05
2023-05-06T13:42:26.418Z,24.62
2023-05-06T13:44:55.621Z,24.37
2023-05-06T13:47:26.351Z,24.15
2023-05-06T13:49:56.309Z,24.12
2023-05-06T13:52:25.462Z,24.15
2023-05-06T13:54:56.304Z,23.86
2023-05-06T13:57:25.927Z,23.58
2023-05-06T13:59:55.306Z,23.25
2023-05-06T14:02:26.769Z,22.75
2023-05-06T14:04:56.088Z,22.63
2023-05-06T14:07:25.416Z,22.65
2023-05-06T14:09:55.194Z,22.46
2023-05-06T14:12:25.388Z,22.48
2023-05-06T14:14:56.581Z,22.12
2023-05-06T14:17:25.908Z,22.07
2023-05-06T14:19:55.353Z,21.64
2023-05-06T14:22:25.863Z,21.50
2023-05-06T14:24:55.821Z,21.26
2023-05-06T14:27:26.662Z,21.22
2023-05-06T14:29:55.887Z,21.04
2023-05-06T14:32:25.653Z,20.53
2023-05-06T14:34:55.930Z,20.28
2023-05-06T14:37:25.992Z,19.80
2023-05-06T14:39:57.105Z,20.00
2023-05-06T14:42:26.603Z,20.28
2023-05-06T14:44:55.630Z,20.02
2023-05-06T14:47:26.034Z,19.99
2023-05-06T14:49:55.828Z,19.87
2023-05-06T14:52:25.817Z,19.68
2023-05-06T14:54:56.176Z,19.63
2023-05-06T14:57:25.805Z,19.73
2023-05-06T14:59:55.897Z,19.53
2023-05-06T15:02:26.560Z,19.21
2023-05-06T15:04:55.780Z,18.72
2023-05-06T15:07:26.989Z,18.95
2023-05-06T15:09:56.474Z,18.95
2023-05-06T15:12:26.001Z,18.83
2023-05-06T15:14:56.065Z,19.13
2023-05-06T15:17:27.037Z,18.94
2023-05-06T15:19:56.355Z,18.87
2023-05-06T15:22:26.603Z,18.68
2023-05-06T15:24:55.998Z,18.53
2023-05-06T15:27:26.837Z,18.45
2023-05-06T15:29:56.286Z,18.43
2023-05-06T15:32:27.411Z,18.31
2023-05-06T15:34:57.929Z,18.35
2023-05-06T15:37:27.084Z,18.37
2023-05-06T15:39:57.092Z,18.45
2023-05-06T15:42:26.679Z,18.51
2023-05-06T15:44:57.699Z,17.89
2023-05-06T15:47:26.865Z,17.95
2023-05-06T15:49:56.764Z,18.07
2023-05-06T15:52:26.232Z,18.20
2023-05-06T15:54:59.408Z,18.06
2023-05-06T15:57:31.237Z,18.05
2023-05-06T16:00:00.353Z,18.04
2023-05-06T16:02:29.692Z,18.05
2023-05-06T16:04:59.387Z,17.96
2023-05-06T16:07:29.314Z,18.00
2023-05-06T16:09:58.448Z,18.26
2023-05-06T16:12:31.527Z,18.24
2023-05-06T16:15:00.828Z,18.11
2023-05-06T16:17:30.608Z,18.32
2023-05-06T16:20:00.247Z,17.93
2023-05-06T16:22:29.390Z,18.19
2023-05-06T16:24:58.683Z,18.34
2023-05-06T16:27:28.423Z,18.50
2023-05-06T16:29:57.453Z,18.58
2023-05-06T16:32:27.044Z,18.40
2023-05-06T16:34:56.508Z,18.60
2023-05-06T16:37:27.921Z,18.64
2023-05-06T16:39:57.441Z,18.87
2023-05-06T16:42:26.703Z,18.76
2023-05-06T16:44:57.297Z,18.93
2023-05-06T16:47:28.008Z,19.28
2023-05-06T16:49:58.732Z,19.39
2023-05-06T16:52:30.058Z,19.41
2023-05-06T16:55:00.172Z,19.57
2023-05-06T16:57:29.665Z,19.74
2023-05-06T16:59:59.128Z,19.92
2023-05-06T17:02:28.495Z,20.10
2023-05-06T17:04:57.956Z,20.22
2023-05-06T17:07:27.058Z,20.31
2023-05-06T17:09:56.755Z,20.43
2023-05-06T17:12:27.632Z,20.54
2023-05-06T17:14:56.957Z,20.70
2023-05-06T17:17:28.450Z,20.69
2023-05-06T17:19:58.284Z,20.78
2023-05-06T17:22:27.876Z,21.04
2023-05-06T17:24:57.412Z,21.01
2023-05-06T17:27:27.057Z,21.20
2023-05-06T17:29:56.743Z,21.37
2023-05-06T17:32:27.034Z,21.47
2023-05-06T17:34:56.881Z,21.52
2023-05-06T17:37:28.244Z,21.74
2023-05-06T17:39:57.444Z,21.87
2023-05-06T17:42:27.308Z,21.85
2023-05-06T17:44:56.918Z,21.97
2023-05-06T17:47:29.336Z,22.14
2023-05-06T17:49:59.118Z,22.34
2023-05-06T17:52:28.224Z,22.38
2023-05-06T17:55:23.376Z,22.48
2023-05-06T17:57:47.560Z,22.68
2023-05-06T18:00:18.004Z,22.65
2023-05-06T18:02:47.638Z,22.79
2023-05-06T18:05:17.250Z,23.00
2023-05-06T18:07:48.999Z,23.12
2023-05-06T18:10:19.841Z,23.28
2023-05-06T18:12:54.162Z,23.20
2023-05-06T18:15:24.685Z,23.32
2023-05-06T18:17:55.138Z,23.33
2023-05-06T18:20:25.460Z,23.70
2023-05-06T18:22:58.091Z,23.67
2023-05-06T18:25:29.013Z,23.84
2023-05-06T18:27:58.851Z,23.93
2023-05-06T18:30:28.167Z,23.84
2023-05-06T18:32:57.649Z,23.83
2023-05-06T18:35:27.513Z,23.96
2023-05-06T18:37:58.229Z,24.15
2023-05-06T18:40:27.611Z,24.04
2023-05-06T18:42:58.204Z,24.22
2023-05-06T18:45:27.602Z,24.28
2023-05-06T18:47:57.121Z,24.38
2023-05-06T18:50:27.434Z,24.44
2023-05-06T18:52:59.464Z,24.48
2023-05-06T18:55:29.478Z,24.76
2023-05-06T18:57:58.714Z,24.66
2023-05-06T19:00:28.720Z,24.82
2023-05-06T19:02:58.451Z,24.89
2023-05-06T19:05:28.003Z,25.15
2023-05-06T19:07:58.432Z,25.11
2023-05-06T19:10:31.469Z,25.27
2023-05-06T19:13:03.937Z,25.36
2023-05-06T19:15:38.641Z,25.40
2023-05-06T19:18:09.777Z,25.57
2023-05-06T19:20:41.763Z,25.53
2023-05-06T19:23:12.184Z,25.72
2023-05-06T19:25:46.923Z,25.91
2023-05-06T19:28:29.325Z,25.95
2023-05-06T19:31:12.836Z,25.91
2023-05-06T19:34:06.350Z,26.07
2023-05-06T19:36:37.880Z,26.26
2023-05-06T19:39:16.373Z,26.24
2023-05-06T19:41:54.862Z,26.38
2023-05-06T19:44:28.461Z,26.49
2023-05-06T19:46:59.168Z,26.47
2023-05-06T19:49:31.942Z,26.41
2023-05-06T19:52:06.175Z,26.56
2023-05-06T19:54:35.795Z,26.66
2023-05-06T19:57:05.270Z,26.72
2023-05-06T19:59:35.501Z,26.92
2023-05-06T20:02:09.678Z,27.06
2023-05-06T20:04:40.236Z,27.26
2023-05-06T20:07:13.517Z,27.30
2023-05-06T20:09:43.349Z,27.39
2023-05-06T20:12:13.561Z,27.60
2023-05-06T20:14:44.866Z,27.95
2023-05-06T20:17:16.950Z,28.01
2023-05-06T20:19:50.103Z,28.18
2023-05-06T20:22:20.378Z,28.47
2023-05-06T20:24:52.777Z,28.59
2023-05-06T20:27:36.845Z,28.83
2023-05-06T20:30:09.870Z,29.13
2023-05-06T20:32:42.078Z,29.34
2023-05-06T20:35:11.979Z,29.64
2023-05-06T20:37:48.481Z,29.81
2023-05-06T20:40:18.340Z,30.10
2023-05-06T20:42:47.240Z,30.23
2023-05-06T20:45:17.478Z,30.40
2023-05-06T20:47:47.385Z,30.69
2023-05-06T20:50:18.116Z,30.87
2023-05-06T20:53:00.440Z,31.17
2023-05-06T20:55:32.407Z,31.24
2023-05-06T20:58:00.676Z,31.56
2023-05-06T21:00:29.557Z,31.84
2023-05-06T21:02:58.001Z,32.08
2023-05-06T21:05:27.641Z,32.13
2023-05-06T21:07:57.880Z,32.39
2023-05-06T21:10:27.878Z,32.77
2023-05-06T21:12:56.985Z,32.92
2023-05-06T21:15:26.483Z,32.99
2023-05-06T21:17:57.058Z,33.19
2023-05-06T21:20:27.925Z,33.39
2023-05-06T21:22:58.348Z,33.75
2023-05-06T21:25:28.746Z,34.00
2023-05-06T21:27:58.074Z,34.26
2023-05-06T21:30:29.261Z,34.44
2023-05-06T21:32:57.321Z,34.50
2023-05-06T21:35:27.518Z,34.65
2023-05-06T21:37:59.641Z,34.98
2023-05-06T21:40:39.319Z,35.07
2023-05-06T21:43:12.009Z,35.37
2023-05-06T21:45:45.770Z,35.46
2023-05-06T21:48:16.393Z,35.65
2023-05-06T21:50:46.835Z,35.68
2023-05-06T21:53:15.028Z,35.73
2023-05-06T21:55:43.410Z,36.03
2023-05-06T21:58:11.546Z,36.23
2023-05-06T22:00:39.650Z,36.19
2023-05-06T22:03:08.659Z,36.31
2023-05-06T22:05:38.619Z,36.60
2023-05-06T22:08:07.021Z,36.75
2023-05-06T22:10:36.758Z,36.98
2023-05-06T22:13:04.987Z,37.01
2023-05-06T22:15:33.501Z,37.14
2023-05-06T22:18:02.376Z,37.37
2023-05-06T22:20:32.381Z,37.36
2023-05-06T22:23:00.702Z,37.62
2023-05-06T22:25:28.921Z,37.64
2023-05-06T22:27:57.768Z,37.86
2023-05-06T22:30:26.807Z,37.76
2023-05-06T22:32:56.555Z,37.70
2023-05-06T22:35:26.475Z,37.89
2023-05-06T22:37:56.024Z,37.86
2023-05-06T22:40:27.425Z,37.93
2023-05-06T22:42:57.533Z,38.00
2023-05-06T22:45:27.351Z,38.02
2023-05-06T22:48:00.249Z,38.11
2023-05-06T22:50:29.190Z,38.17
2023-05-06T22:52:57.969Z,38.21
2023-05-06T22:55:27.162Z,38.34
2023-05-06T22:57:56.106Z,38.25
2023-05-06T23:00:24.437Z,38.44
2023-05-06T23:02:54.101Z,38.36
2023-05-06T23:05:23.340Z,38.61
2023-05-06T23:07:51.546Z,38.78
2023-05-06T23:10:20.321Z,38.78
2023-05-06T23:12:49.520Z,39.03
2023-05-06T23:15:17.830Z,39.08
2023-05-06T23:17:47.391Z,39.12
2023-05-06T23:20:16.585Z,39.23
2023-05-06T23:22:44.963Z,39.42
2023-05-06T23:25:13.393Z,39.57
2023-05-06T23:27:42.701Z,39.56
2023-05-06T23:30:11.976Z,39.70
2023-05-06T23:32:40.390Z,39.70
2023-05-06T23:35:09.420Z,39.74
2023-05-06T23:37:39.378Z,39.92
2023-05-06T23:40:12.973Z,40.36
2023-05-06T23:42:43.034Z,40.50
2023-05-06T23:45:15.096Z,40.73
2023-05-06T23:47:48.597Z,40.99
2023-05-06T23:50:17.535Z,41.34
2023-05-06T23:52:47.202Z,41.42
2023-05-06T23:55:21.023Z,41.48
2023-05-06T23:57:50.916Z,41.70
